Jordan, MT

5:40 AM MDT on September 22, 2014 (GMT -0600)
Wokal-Glasgow International | Change Station
CLOSE
Current Station
Airport
Location: Glasgow,
Elevation: 2293 ft
Nearby Weather Stations

Elev 2293 ft 48.21 °N, 106.62 °W | Updated 47 minutes ago

Clear
Clear
50 °F
Feels Like 50 °F
N
14
Wind Variable Wind from East

Today
High -- | Low -- °F
--% Chance of Precip.
Yesterday
High -- | Low -- °F
Precip. -- in
6:54 AM 7:05 PM
Waning Crescent, 3% visible
Pressure 29.97 in
Visibility 10.0 miles
Clouds Clear
Dew Point 35 °F
Humidity 57%
Rainfall 0.00 in
Snow Depth 1 in , 1 in , 1 in
UV 0 out of 12
Pollen 4.80 out of 12
Air Quality Not available.
Flu Activity Not available.
METAR KGGW 221053Z AUTO 10012KT 10SM CLR 10/02 A2997 RMK AO2 SLP148 T01000017

More Conditions Fewer Conditions

Pressure 29.97 in
Visibility 10.0 miles
Clouds Clear
Dew Point 35 °F
Humidity 57%
Rainfall 0.00 in
Snow Depth 1 in , 1 in , 1 in
UV 0 out of 12
Pollen 4.80 out of 12
Air Quality Not available.
Flu Activity Not available.
METAR KGGW 221053Z AUTO 10012KT 10SM CLR 10/02 A2997 RMK AO2 SLP148 T01000017

More Conditions Fewer Conditions

10-Day Weather Forecast

Almanac

Astronomy

Sep. 22, 2014 Rise Set
Actual Time 6:54 AM MDT 7:05 PM MDT
Civil Twilight 6:24 AM MDT 7:35 PM MDT
Nautical Twilight 5:47 AM MDT 8:11 PM MDT
Astronomical Twilight 5:10 AM MDT 8:48 PM MDT
Moon 5:21 AM MDT 6:16 PM MDT
Length of Visible Light 13h 11m
Length of Day
12h 10m
Tomorrow will be 3m 23s shorter.
Waning Crescent, 3% of the Moon is Illuminated
Today
Waning Crescent
Sep 24
New
Oct 1
First Quarter
Oct 8
Full
Oct 15
Last Quarter

Today's Extremes

State Highs State Lows

Community

WunderPhotos

Upload Photos

1,755,409 photos uploaded!

Nearby

Snow Depth

Station Depth Elevation
Crystal Lake 1 in 6050 ft
Fisher Creek 1 in 9100 ft
Porcupine 1 in 6500 ft
Wood Creek 1 in 5960 ft
Stuart Mountain 0 in 7400 ft

Earthquake Activity

City Distance Mag. Time & Date
No recent earthquake activity has been reported nearby.
Minimum magnitude displayed is 2.5.

Coastal Water Temperatures

Place Temperature
No Stations Reporting

Nearby Weather Stations